sensor_id;sensor_type;location;lat;lon;timestamp;P1;durP1;ratioP1;P2;durP2;ratioP2
17959;SDS011;9105;53.552;9.980;2023-07-28T00:00:56;22.45;;;14.05;;
17959;SDS011;9105;53.552;9.980;2023-07-28T00:03:21;12.93;;;9.35;;
17959;SDS011;9105;53.552;9.980;2023-07-28T00:05:46;24.55;;;14.30;;
17959;SDS011;9105;53.552;9.980;2023-07-28T00:08:12;25.27;;;15.52;;
17959;SDS011;9105;53.552;9.980;2023-07-28T00:10:41;20.52;;;13.40;;
17959;SDS011;9105;53.552;9.980;2023-07-28T00:13:07;19.70;;;13.18;;
17959;SDS011;9105;53.552;9.980;2023-07-28T00:15:32;20.20;;;13.75;;
17959;SDS011;9105;53.552;9.980;2023-07-28T00:17:58;12.93;;;10.38;;
17959;SDS011;9105;53.552;9.980;2023-07-28T00:20:25;15.88;;;10.60;;
17959;SDS011;9105;53.552;9.980;2023-07-28T00:22:51;24.60;;;13.40;;
17959;SDS011;9105;53.552;9.980;2023-07-28T00:25:16;25.55;;;14.73;;
17959;SDS011;9105;53.552;9.980;2023-07-28T00:27:42;15.07;;;11.10;;
17959;SDS011;9105;53.552;9.980;2023-07-28T00:30:07;19.55;;;12.80;;
17959;SDS011;9105;53.552;9.980;2023-07-28T00:32:35;20.08;;;12.35;;
17959;SDS011;9105;53.552;9.980;2023-07-28T00:35:00;18.75;;;11.65;;
17959;SDS011;9105;53.552;9.980;2023-07-28T00:37:26;16.38;;;9.88;;
17959;SDS011;9105;53.552;9.980;2023-07-28T00:39:51;15.57;;;10.25;;
17959;SDS011;9105;53.552;9.980;2023-07-28T00:42:16;13.23;;;9.80;;
17959;SDS011;9105;53.552;9.980;2023-07-28T00:44:42;16.60;;;10.55;;
17959;SDS011;9105;53.552;9.980;2023-07-28T00:47:07;9.60;;;7.68;;
17959;SDS011;9105;53.552;9.980;2023-07-28T00:49:33;19.00;;;11.85;;
17959;SDS011;9105;53.552;9.980;2023-07-28T00:51:58;7.40;;;6.60;;
17959;SDS011;9105;53.552;9.980;2023-07-28T00:54:24;19.23;;;12.20;;
17959;SDS011;9105;53.552;9.980;2023-07-28T00:56:49;12.60;;;9.57;;
17959;SDS011;9105;53.552;9.980;2023-07-28T00:59:16;17.10;;;10.98;;
17959;SDS011;9105;53.552;9.980;2023-07-28T01:01:41;12.95;;;9.32;;
17959;SDS011;9105;53.552;9.980;2023-07-28T01:04:16;20.80;;;12.32;;
17959;SDS011;9105;53.552;9.980;2023-07-28T01:13:45;9.75;;;7.93;;
17959;SDS011;9105;53.552;9.980;2023-07-28T01:16:48;10.93;;;8.57;;
17959;SDS011;9105;53.552;9.980;2023-07-28T01:19:51;14.50;;;10.55;;
17959;SDS011;9105;53.552;9.980;2023-07-28T01:22:40;9.35;;;8.05;;
17959;SDS011;9105;53.552;9.980;2023-07-28T01:28:07;9.02;;;7.88;;
17959;SDS011;9105;53.552;9.980;2023-07-28T01:30:33;7.45;;;6.55;;
17959;SDS011;9105;53.552;9.980;2023-07-28T01:32:58;14.75;;;9.93;;
17959;SDS011;9105;53.552;9.980;2023-07-28T01:35:25;15.80;;;10.73;;
17959;SDS011;9105;53.552;9.980;2023-07-28T01:37:50;10.45;;;8.75;;
17959;SDS011;9105;53.552;9.980;2023-07-28T01:40:16;14.73;;;10.38;;
17959;SDS011;9105;53.552;9.980;2023-07-28T01:42:42;15.50;;;10.40;;
17959;SDS011;9105;53.552;9.980;2023-07-28T01:45:08;12.75;;;10.13;;
17959;SDS011;9105;53.552;9.980;2023-07-28T01:47:35;14.82;;;9.95;;
17959;SDS011;9105;53.552;9.980;2023-07-28T01:50:01;17.42;;;12.07;;
17959;SDS011;9105;53.552;9.980;2023-07-28T01:52:26;7.47;;;6.63;;
17959;SDS011;9105;53.552;9.980;2023-07-28T01:54:52;12.38;;;8.65;;
17959;SDS011;9105;53.552;9.980;2023-07-28T01:57:17;10.30;;;8.10;;
17959;SDS011;9105;53.552;9.980;2023-07-28T01:59:43;11.88;;;8.30;;
17959;SDS011;9105;53.552;9.980;2023-07-28T02:02:08;13.68;;;10.00;;
17959;SDS011;9105;53.552;9.980;2023-07-28T02:04:34;15.35;;;10.70;;
17959;SDS011;9105;53.552;9.980;2023-07-28T02:06:59;10.05;;;7.95;;
17959;SDS011;9105;53.552;9.980;2023-07-28T02:09:24;11.48;;;9.18;;
17959;SDS011;9105;53.552;9.980;2023-07-28T02:11:50;7.80;;;7.03;;
17959;SDS011;9105;53.552;9.980;2023-07-28T02:14:15;8.52;;;7.55;;
17959;SDS011;9105;53.552;9.980;2023-07-28T02:16:41;9.20;;;7.50;;
17959;SDS011;9105;53.552;9.980;2023-07-28T02:19:06;10.65;;;8.95;;
17959;SDS011;9105;53.552;9.980;2023-07-28T02:21:32;10.35;;;8.48;;
17959;SDS011;9105;53.552;9.980;2023-07-28T02:23:58;11.30;;;9.48;;
17959;SDS011;9105;53.552;9.980;2023-07-28T02:26:23;10.98;;;8.73;;
17959;SDS011;9105;53.552;9.980;2023-07-28T02:28:49;14.90;;;10.48;;
17959;SDS011;9105;53.552;9.980;2023-07-28T02:31:14;10.48;;;8.50;;
17959;SDS011;9105;53.552;9.980;2023-07-28T02:33:39;9.27;;;7.95;;
17959;SDS011;9105;53.552;9.980;2023-07-28T02:36:05;17.70;;;12.07;;
17959;SDS011;9105;53.552;9.980;2023-07-28T02:38:30;13.50;;;10.95;;
17959;SDS011;9105;53.552;9.980;2023-07-28T02:40:56;14.20;;;10.80;;
17959;SDS011;9105;53.552;9.980;2023-07-28T02:43:21;13.73;;;10.25;;
17959;SDS011;9105;53.552;9.980;2023-07-28T02:45:53;15.30;;;10.82;;
17959;SDS011;9105;53.552;9.980;2023-07-28T02:48:19;17.27;;;11.68;;
17959;SDS011;9105;53.552;9.980;2023-07-28T02:50:46;16.60;;;12.43;;
17959;SDS011;9105;53.552;9.980;2023-07-28T02:53:12;27.23;;;15.27;;
17959;SDS011;9105;53.552;9.980;2023-07-28T02:55:42;20.75;;;13.15;;
17959;SDS011;9105;53.552;9.980;2023-07-28T02:58:08;23.05;;;13.93;;
17959;SDS011;9105;53.552;9.980;2023-07-28T03:00:33;17.98;;;11.80;;
17959;SDS011;9105;53.552;9.980;2023-07-28T03:02:59;20.30;;;11.88;;
17959;SDS011;9105;53.552;9.980;2023-07-28T03:05:25;12.07;;;9.23;;
17959;SDS011;9105;53.552;9.980;2023-07-28T03:07:50;15.52;;;10.73;;
17959;SDS011;9105;53.552;9.980;2023-07-28T03:10:16;15.23;;;10.27;;
17959;SDS011;9105;53.552;9.980;2023-07-28T03:12:42;11.68;;;8.77;;
17959;SDS011;9105;53.552;9.980;2023-07-28T03:15:07;14.02;;;9.68;;
17959;SDS011;9105;53.552;9.980;2023-07-28T03:17:34;15.45;;;8.73;;
17959;SDS011;9105;53.552;9.980;2023-07-28T03:19:59;14.23;;;9.35;;
17959;SDS011;9105;53.552;9.980;2023-07-28T03:22:25;8.90;;;7.10;;
17959;SDS011;9105;53.552;9.980;2023-07-28T03:24:50;8.70;;;7.07;;
17959;SDS011;9105;53.552;9.980;2023-07-28T03:27:15;12.75;;;9.50;;
17959;SDS011;9105;53.552;9.980;2023-07-28T03:29:41;12.82;;;8.85;;
17959;SDS011;9105;53.552;9.980;2023-07-28T03:32:06;8.98;;;7.28;;
17959;SDS011;9105;53.552;9.980;2023-07-28T03:34:32;9.90;;;7.47;;
17959;SDS011;9105;53.552;9.980;2023-07-28T03:36:57;7.97;;;6.65;;
17959;SDS011;9105;53.552;9.980;2023-07-28T03:39:22;8.63;;;7.22;;
17959;SDS011;9105;53.552;9.980;2023-07-28T03:41:48;7.55;;;6.78;;
17959;SDS011;9105;53.552;9.980;2023-07-28T03:44:13;7.35;;;6.20;;
17959;SDS011;9105;53.552;9.980;2023-07-28T03:46:40;7.40;;;6.53;;
17959;SDS011;9105;53.552;9.980;2023-07-28T03:49:06;8.18;;;6.85;;
17959;SDS011;9105;53.552;9.980;2023-07-28T03:51:31;7.53;;;6.10;;
17959;SDS011;9105;53.552;9.980;2023-07-28T03:53:56;6.63;;;5.88;;
17959;SDS011;9105;53.552;9.980;2023-07-28T03:56:22;8.85;;;7.30;;
17959;SDS011;9105;53.552;9.980;2023-07-28T03:58:47;16.38;;;9.75;;
17959;SDS011;9105;53.552;9.980;2023-07-28T04:01:13;12.93;;;8.80;;
17959;SDS011;9105;53.552;9.980;2023-07-28T04:03:38;9.32;;;7.75;;
17959;SDS011;9105;53.552;9.980;2023-07-28T04:06:10;8.05;;;6.72;;
17959;SDS011;9105;53.552;9.980;2023-07-28T04:08:37;7.88;;;6.38;;
17959;SDS011;9105;53.552;9.980;2023-07-28T04:11:02;10.30;;;8.20;;
17959;SDS011;9105;53.552;9.980;2023-07-28T04:13:28;9.93;;;7.55;;
17959;SDS011;9105;53.552;9.980;2023-07-28T04:15:53;9.45;;;7.38;;
17959;SDS011;9105;53.552;9.980;2023-07-28T04:18:19;9.57;;;7.85;;
17959;SDS011;9105;53.552;9.980;2023-07-28T04:20:45;9.10;;;7.55;;
17959;SDS011;9105;53.552;9.980;2023-07-28T04:23:11;9.73;;;8.52;;
17959;SDS011;9105;53.552;9.980;2023-07-28T04:25:36;12.68;;;8.93;;
17959;SDS011;9105;53.552;9.980;2023-07-28T04:28:01;8.90;;;7.60;;
17959;SDS011;9105;53.552;9.980;2023-07-28T04:30:27;8.75;;;7.53;;
17959;SDS011;9105;53.552;9.980;2023-07-28T04:32:52;10.85;;;7.97;;
17959;SDS011;9105;53.552;9.980;2023-07-28T04:35:18;9.50;;;7.10;;
17959;SDS011;9105;53.552;9.980;2023-07-28T04:37:43;12.02;;;8.77;;
17959;SDS011;9105;53.552;9.980;2023-07-28T04:40:09;13.95;;;10.43;;
17959;SDS011;9105;53.552;9.980;2023-07-28T04:42:34;9.10;;;7.80;;
17959;SDS011;9105;53.552;9.980;2023-07-28T04:45:01;9.48;;;8.48;;
17959;SDS011;9105;53.552;9.980;2023-07-28T04:47:26;8.48;;;7.57;;
17959;SDS011;9105;53.552;9.980;2023-07-28T04:49:52;8.68;;;7.80;;
17959;SDS011;9105;53.552;9.980;2023-07-28T04:52:17;8.80;;;7.90;;
17959;SDS011;9105;53.552;9.980;2023-07-28T04:54:42;14.02;;;10.38;;
17959;SDS011;9105;53.552;9.980;2023-07-28T04:57:08;10.70;;;8.35;;
17959;SDS011;9105;53.552;9.980;2023-07-28T04:59:33;11.85;;;9.57;;
17959;SDS011;9105;53.552;9.980;2023-07-28T05:01:59;8.82;;;7.90;;
17959;SDS011;9105;53.552;9.980;2023-07-28T05:04:24;8.85;;;7.95;;
17959;SDS011;9105;53.552;9.980;2023-07-28T05:06:50;8.82;;;7.90;;
17959;SDS011;9105;53.552;9.980;2023-07-28T05:09:15;8.48;;;6.80;;
17959;SDS011;9105;53.552;9.980;2023-07-28T05:11:40;6.55;;;5.82;;
17959;SDS011;9105;53.552;9.980;2023-07-28T05:14:06;6.40;;;5.80;;
17959;SDS011;9105;53.552;9.980;2023-07-28T05:16:33;8.02;;;7.22;;
17959;SDS011;9105;53.552;9.980;2023-07-28T05:18:59;5.90;;;5.40;;
17959;SDS011;9105;53.552;9.980;2023-07-28T05:21:24;6.80;;;6.13;;
17959;SDS011;9105;53.552;9.980;2023-07-28T05:23:50;7.30;;;6.60;;
17959;SDS011;9105;53.552;9.980;2023-07-28T05:26:16;4.53;;;4.13;;
17959;SDS011;9105;53.552;9.980;2023-07-28T05:28:42;6.50;;;5.90;;
17959;SDS011;9105;53.552;9.980;2023-07-28T05:31:07;6.88;;;6.18;;
17959;SDS011;9105;53.552;9.980;2023-07-28T05:33:32;5.85;;;5.35;;
17959;SDS011;9105;53.552;9.980;2023-07-28T05:35:59;6.97;;;4.95;;
17959;SDS011;9105;53.552;9.980;2023-07-28T05:38:30;6.28;;;5.68;;
17959;SDS011;9105;53.552;9.980;2023-07-28T05:40:56;5.13;;;4.68;;
17959;SDS011;9105;53.552;9.980;2023-07-28T05:43:22;5.60;;;4.88;;
17959;SDS011;9105;53.552;9.980;2023-07-28T05:45:47;4.95;;;4.43;;
17959;SDS011;9105;53.552;9.980;2023-07-28T05:48:13;5.10;;;4.63;;
17959;SDS011;9105;53.552;9.980;2023-07-28T05:50:38;5.50;;;5.00;;
17959;SDS011;9105;53.552;9.980;2023-07-28T05:53:04;4.80;;;4.40;;
17959;SDS011;9105;53.552;9.980;2023-07-28T05:55:29;4.50;;;4.10;;
17959;SDS011;9105;53.552;9.980;2023-07-28T05:57:55;6.28;;;5.68;;
17959;SDS011;9105;53.552;9.980;2023-07-28T06:00:20;4.75;;;4.35;;
17959;SDS011;9105;53.552;9.980;2023-07-28T06:02:47;5.40;;;4.90;;
17959;SDS011;9105;53.552;9.980;2023-07-28T06:05:12;5.60;;;5.10;;
17959;SDS011;9105;53.552;9.980;2023-07-28T06:07:38;3.90;;;3.60;;
17959;SDS011;9105;53.552;9.980;2023-07-28T06:10:03;3.75;;;3.40;;
17959;SDS011;9105;53.552;9.980;2023-07-28T06:12:29;3.60;;;3.30;;
17959;SDS011;9105;53.552;9.980;2023-07-28T06:14:54;5.20;;;4.10;;
17959;SDS011;9105;53.552;9.980;2023-07-28T06:17:20;4.38;;;3.95;;
17959;SDS011;9105;53.552;9.980;2023-07-28T06:19:45;5.05;;;4.55;;
17959;SDS011;9105;53.552;9.980;2023-07-28T06:22:11;4.57;;;4.18;;
17959;SDS011;9105;53.552;9.980;2023-07-28T06:24:36;4.47;;;4.07;;
17959;SDS011;9105;53.552;9.980;2023-07-28T06:27:01;4.57;;;4.18;;
17959;SDS011;9105;53.552;9.980;2023-07-28T06:29:32;3.95;;;3.60;;
17959;SDS011;9105;53.552;9.980;2023-07-28T06:31:57;4.20;;;3.80;;
17959;SDS011;9105;53.552;9.980;2023-07-28T06:34:23;4.78;;;3.85;;
17959;SDS011;9105;53.552;9.980;2023-07-28T06:36:48;4.22;;;3.58;;
17959;SDS011;9105;53.552;9.980;2023-07-28T06:39:14;4.00;;;3.60;;
17959;SDS011;9105;53.552;9.980;2023-07-28T06:41:39;4.82;;;3.72;;
17959;SDS011;9105;53.552;9.980;2023-07-28T06:44:05;3.50;;;3.20;;
17959;SDS011;9105;53.552;9.980;2023-07-28T06:46:30;4.07;;;3.70;;
17959;SDS011;9105;53.552;9.980;2023-07-28T06:48:56;3.40;;;3.10;;
17959;SDS011;9105;53.552;9.980;2023-07-28T06:51:21;4.22;;;3.10;;
17959;SDS011;9105;53.552;9.980;2023-07-28T06:53:47;3.80;;;3.50;;
17959;SDS011;9105;53.552;9.980;2023-07-28T06:56:12;3.70;;;3.40;;
17959;SDS011;9105;53.552;9.980;2023-07-28T06:58:37;3.50;;;3.20;;
17959;SDS011;9105;53.552;9.980;2023-07-28T07:01:03;4.05;;;3.17;;
17959;SDS011;9105;53.552;9.980;2023-07-28T07:03:28;4.15;;;3.08;;
17959;SDS011;9105;53.552;9.980;2023-07-28T07:05:54;3.15;;;2.88;;
17959;SDS011;9105;53.552;9.980;2023-07-28T07:08:19;3.30;;;3.00;;
17959;SDS011;9105;53.552;9.980;2023-07-28T07:10:48;4.43;;;2.53;;
17959;SDS011;9105;53.552;9.980;2023-07-28T07:13:15;3.17;;;2.88;;
17959;SDS011;9105;53.552;9.980;2023-07-28T07:15:40;2.78;;;2.58;;
17959;SDS011;9105;53.552;9.980;2023-07-28T07:18:07;2.70;;;2.50;;
17959;SDS011;9105;53.552;9.980;2023-07-28T07:20:36;2.63;;;2.40;;
17959;SDS011;9105;53.552;9.980;2023-07-28T07:23:04;2.90;;;2.53;;
17959;SDS011;9105;53.552;9.980;2023-07-28T07:25:30;2.80;;;2.60;;
17959;SDS011;9105;53.552;9.980;2023-07-28T07:27:56;2.40;;;2.13;;
17959;SDS011;9105;53.552;9.980;2023-07-28T07:30:21;2.50;;;2.30;;
17959;SDS011;9105;53.552;9.980;2023-07-28T07:32:47;2.20;;;2.00;;
17959;SDS011;9105;53.552;9.980;2023-07-28T07:35:12;2.45;;;2.00;;
17959;SDS011;9105;53.552;9.980;2023-07-28T07:37:38;2.58;;;2.35;;
17959;SDS011;9105;53.552;9.980;2023-07-28T07:40:03;2.35;;;1.98;;
17959;SDS011;9105;53.552;9.980;2023-07-28T07:42:40;2.60;;;2.40;;
17959;SDS011;9105;53.552;9.980;2023-07-28T07:45:12;3.57;;;2.10;;
17959;SDS011;9105;53.552;9.980;2023-07-28T07:47:39;2.70;;;2.50;;
17959;SDS011;9105;53.552;9.980;2023-07-28T07:50:05;2.50;;;2.30;;
17959;SDS011;9105;53.552;9.980;2023-07-28T07:52:34;2.58;;;2.38;;
17959;SDS011;9105;53.552;9.980;2023-07-28T07:54:59;3.05;;;2.35;;
17959;SDS011;9105;53.552;9.980;2023-07-28T07:57:25;4.10;;;2.55;;
17959;SDS011;9105;53.552;9.980;2023-07-28T07:59:50;2.75;;;2.55;;
17959;SDS011;9105;53.552;9.980;2023-07-28T08:02:16;2.92;;;2.72;;
17959;SDS011;9105;53.552;9.980;2023-07-28T08:04:41;2.28;;;2.08;;
17959;SDS011;9105;53.552;9.980;2023-07-28T08:07:06;3.95;;;2.80;;
17959;SDS011;9105;53.552;9.980;2023-07-28T08:09:32;2.55;;;2.33;;
17959;SDS011;9105;53.552;9.980;2023-07-28T08:11:59;2.70;;;2.42;;
17959;SDS011;9105;53.552;9.980;2023-07-28T08:14:24;2.60;;;2.40;;
17959;SDS011;9105;53.552;9.980;2023-07-28T08:16:50;2.85;;;2.55;;
17959;SDS011;9105;53.552;9.980;2023-07-28T08:19:15;3.30;;;3.00;;
17959;SDS011;9105;53.552;9.980;2023-07-28T08:21:41;2.50;;;2.30;;
17959;SDS011;9105;53.552;9.980;2023-07-28T08:24:06;3.28;;;2.30;;
17959;SDS011;9105;53.552;9.980;2023-07-28T08:26:32;2.42;;;2.20;;
17959;SDS011;9105;53.552;9.980;2023-07-28T08:28:57;3.95;;;2.40;;
17959;SDS011;9105;53.552;9.980;2023-07-28T08:31:22;2.75;;;2.40;;
17959;SDS011;9105;53.552;9.980;2023-07-28T08:33:48;2.40;;;2.20;;
17959;SDS011;9105;53.552;9.980;2023-07-28T08:36:13;2.50;;;2.30;;
17959;SDS011;9105;53.552;9.980;2023-07-28T08:38:39;1.90;;;1.80;;
17959;SDS011;9105;53.552;9.980;2023-07-28T08:41:04;3.90;;;2.00;;
17959;SDS011;9105;53.552;9.980;2023-07-28T08:43:30;2.25;;;2.05;;
17959;SDS011;9105;53.552;9.980;2023-07-28T08:45:56;2.15;;;2.03;;
17959;SDS011;9105;53.552;9.980;2023-07-28T08:48:22;2.22;;;2.08;;
17959;SDS011;9105;53.552;9.980;2023-07-28T08:50:48;2.20;;;2.00;;
17959;SDS011;9105;53.552;9.980;2023-07-28T08:53:13;3.83;;;2.00;;
17959;SDS011;9105;53.552;9.980;2023-07-28T08:55:38;2.13;;;2.00;;
17959;SDS011;9105;53.552;9.980;2023-07-28T08:58:20;2.30;;;2.10;;
17959;SDS011;9105;53.552;9.980;2023-07-28T09:00:47;2.25;;;2.10;;
17959;SDS011;9105;53.552;9.980;2023-07-28T09:03:16;2.30;;;2.10;;
17959;SDS011;9105;53.552;9.980;2023-07-28T09:05:43;2.58;;;2.08;;
17959;SDS011;9105;53.552;9.980;2023-07-28T09:08:11;2.20;;;1.92;;
17959;SDS011;9105;53.552;9.980;2023-07-28T09:10:41;2.15;;;1.95;;
17959;SDS011;9105;53.552;9.980;2023-07-28T09:13:11;2.22;;;2.00;;
17959;SDS011;9105;53.552;9.980;2023-07-28T09:15:37;1.95;;;1.80;;
17959;SDS011;9105;53.552;9.980;2023-07-28T09:18:03;2.50;;;2.30;;
17959;SDS011;9105;53.552;9.980;2023-07-28T09:20:35;2.38;;;2.22;;
17959;SDS011;9105;53.552;9.980;2023-07-28T09:23:01;2.95;;;2.20;;
17959;SDS011;9105;53.552;9.980;2023-07-28T09:25:28;2.50;;;2.30;;
17959;SDS011;9105;53.552;9.980;2023-07-28T09:27:55;2.78;;;2.25;;
17959;SDS011;9105;53.552;9.980;2023-07-28T09:30:21;2.35;;;1.98;;
17959;SDS011;9105;53.552;9.980;2023-07-28T09:32:47;2.42;;;2.22;;
17959;SDS011;9105;53.552;9.980;2023-07-28T09:35:14;2.10;;;2.00;;
17959;SDS011;9105;53.552;9.980;2023-07-28T09:37:40;2.38;;;2.17;;
17959;SDS011;9105;53.552;9.980;2023-07-28T09:40:07;2.20;;;2.00;;
17959;SDS011;9105;53.552;9.980;2023-07-28T09:42:36;3.13;;;2.10;;
17959;SDS011;9105;53.552;9.980;2023-07-28T09:45:02;2.90;;;2.20;;
17959;SDS011;9105;53.552;9.980;2023-07-28T09:47:28;2.70;;;2.35;;
17959;SDS011;9105;53.552;9.980;2023-07-28T09:49:54;2.40;;;2.20;;
17959;SDS011;9105;53.552;9.980;2023-07-28T09:54:48;2.67;;;2.30;;
17959;SDS011;9105;53.552;9.980;2023-07-28T09:57:19;3.13;;;2.40;;
17959;SDS011;9105;53.552;9.980;2023-07-28T09:59:45;2.85;;;2.63;;
17959;SDS011;9105;53.552;9.980;2023-07-28T10:02:12;2.58;;;2.35;;
17959;SDS011;9105;53.552;9.980;2023-07-28T10:04:38;2.83;;;2.58;;
17959;SDS011;9105;53.552;9.980;2023-07-28T10:07:05;1.92;;;1.83;;
17959;SDS011;9105;53.552;9.980;2023-07-28T10:09:30;2.45;;;2.25;;
17959;SDS011;9105;53.552;9.980;2023-07-28T10:11:58;2.50;;;2.30;;
17959;SDS011;9105;53.552;9.980;2023-07-28T10:16:54;2.20;;;2.05;;
17959;SDS011;9105;53.552;9.980;2023-07-28T10:19:20;2.75;;;2.50;;
17959;SDS011;9105;53.552;9.980;2023-07-28T10:21:46;2.00;;;1.90;;
17959;SDS011;9105;53.552;9.980;2023-07-28T10:24:12;2.40;;;2.20;;
17959;SDS011;9105;53.552;9.980;2023-07-28T10:26:38;2.17;;;2.00;;
17959;SDS011;9105;53.552;9.980;2023-07-28T10:29:13;3.53;;;2.10;;
17959;SDS011;9105;53.552;9.980;2023-07-28T10:31:49;2.33;;;2.00;;
17959;SDS011;9105;53.552;9.980;2023-07-28T10:36:43;2.20;;;2.00;;
17959;SDS011;9105;53.552;9.980;2023-07-28T10:39:14;2.28;;;2.10;;
17959;SDS011;9105;53.552;9.980;2023-07-28T10:44:29;2.25;;;1.98;;
17959;SDS011;9105;53.552;9.980;2023-07-28T10:46:54;2.10;;;2.00;;
17959;SDS011;9105;53.552;9.980;2023-07-28T10:49:20;2.40;;;2.20;;
17959;SDS011;9105;53.552;9.980;2023-07-28T10:51:45;2.25;;;2.03;;
17959;SDS011;9105;53.552;9.980;2023-07-28T10:54:11;2.13;;;1.92;;
17959;SDS011;9105;53.552;9.980;2023-07-28T10:56:40;2.45;;;2.25;;
17959;SDS011;9105;53.552;9.980;2023-07-28T10:59:06;2.15;;;2.00;;
17959;SDS011;9105;53.552;9.980;2023-07-28T11:01:35;2.45;;;2.25;;
17959;SDS011;9105;53.552;9.980;2023-07-28T11:04:15;4.03;;;2.60;;
17959;SDS011;9105;53.552;9.980;2023-07-28T11:06:42;4.53;;;2.58;;
17959;SDS011;9105;53.552;9.980;2023-07-28T11:09:09;2.45;;;2.25;;
17959;SDS011;9105;53.552;9.980;2023-07-28T11:11:35;2.40;;;2.20;;
17959;SDS011;9105;53.552;9.980;2023-07-28T11:14:04;2.22;;;2.03;;
17959;SDS011;9105;53.552;9.980;2023-07-28T11:16:32;2.50;;;2.30;;
17959;SDS011;9105;53.552;9.980;2023-07-28T11:19:07;4.57;;;2.20;;
17959;SDS011;9105;53.552;9.980;2023-07-28T11:21:38;2.20;;;2.00;;
17959;SDS011;9105;53.552;9.980;2023-07-28T11:24:04;2.20;;;2.00;;
17959;SDS011;9105;53.552;9.980;2023-07-28T11:26:30;2.63;;;2.20;;
17959;SDS011;9105;53.552;9.980;2023-07-28T11:29:02;3.47;;;2.30;;
17959;SDS011;9105;53.552;9.980;2023-07-28T11:31:28;3.17;;;2.33;;
17959;SDS011;9105;53.552;9.980;2023-07-28T11:33:54;2.88;;;2.17;;
17959;SDS011;9105;53.552;9.980;2023-07-28T11:36:26;2.03;;;1.90;;
17959;SDS011;9105;53.552;9.980;2023-07-28T11:38:56;2.05;;;1.90;;
17959;SDS011;9105;53.552;9.980;2023-07-28T11:41:23;2.90;;;1.92;;
17959;SDS011;9105;53.552;9.980;2023-07-28T11:43:49;3.03;;;2.30;;
17959;SDS011;9105;53.552;9.980;2023-07-28T11:46:31;2.03;;;1.90;;
17959;SDS011;9105;53.552;9.980;2023-07-28T11:51:41;2.38;;;2.10;;
17959;SDS011;9105;53.552;9.980;2023-07-28T11:54:13;2.30;;;2.10;;
17959;SDS011;9105;53.552;9.980;2023-07-28T11:56:40;2.67;;;2.33;;
17959;SDS011;9105;53.552;9.980;2023-07-28T11:59:09;2.30;;;2.10;;
17959;SDS011;9105;53.552;9.980;2023-07-28T12:01:50;2.22;;;2.03;;
17959;SDS011;9105;53.552;9.980;2023-07-28T12:04:20;2.00;;;1.80;;
17959;SDS011;9105;53.552;9.980;2023-07-28T12:12:17;3.25;;;2.20;;
17959;SDS011;9105;53.552;9.980;2023-07-28T12:14:43;2.25;;;2.05;;
17959;SDS011;9105;53.552;9.980;2023-07-28T12:17:11;1.83;;;1.73;;
17959;SDS011;9105;53.552;9.980;2023-07-28T12:22:22;2.50;;;2.30;;
17959;SDS011;9105;53.552;9.980;2023-07-28T12:24:48;4.03;;;2.05;;
17959;SDS011;9105;53.552;9.980;2023-07-28T12:27:13;2.20;;;2.00;;
17959;SDS011;9105;53.552;9.980;2023-07-28T12:29:39;1.98;;;1.88;;
17959;SDS011;9105;53.552;9.980;2023-07-28T12:32:04;2.17;;;1.98;;
17959;SDS011;9105;53.552;9.980;2023-07-28T12:34:30;2.05;;;1.80;;
17959;SDS011;9105;53.552;9.980;2023-07-28T12:36:55;2.90;;;1.80;;
17959;SDS011;9105;53.552;9.980;2023-07-28T12:39:21;1.90;;;1.80;;
17959;SDS011;9105;53.552;9.980;2023-07-28T12:41:46;1.67;;;1.50;;
17959;SDS011;9105;53.552;9.980;2023-07-28T12:44:12;1.67;;;1.58;;
17959;SDS011;9105;53.552;9.980;2023-07-28T12:46:37;2.55;;;1.80;;
17959;SDS011;9105;53.552;9.980;2023-07-28T12:49:03;2.03;;;1.73;;
17959;SDS011;9105;53.552;9.980;2023-07-28T12:51:29;1.60;;;1.50;;
17959;SDS011;9105;53.552;9.980;2023-07-28T12:53:55;1.60;;;1.50;;
17959;SDS011;9105;53.552;9.980;2023-07-28T12:56:20;2.08;;;1.60;;
17959;SDS011;9105;53.552;9.980;2023-07-28T12:58:46;2.55;;;1.60;;
17959;SDS011;9105;53.552;9.980;2023-07-28T13:01:11;1.60;;;1.50;;
17959;SDS011;9105;53.552;9.980;2023-07-28T13:03:37;1.60;;;1.50;;
17959;SDS011;9105;53.552;9.980;2023-07-28T13:06:03;1.67;;;1.58;;
17959;SDS011;9105;53.552;9.980;2023-07-28T13:08:29;2.40;;;1.73;;
17959;SDS011;9105;53.552;9.980;2023-07-28T13:10:54;1.42;;;1.33;;
17959;SDS011;9105;53.552;9.980;2023-07-28T13:13:19;1.50;;;1.40;;
17959;SDS011;9105;53.552;9.980;2023-07-28T13:15:45;1.65;;;1.50;;
17959;SDS011;9105;53.552;9.980;2023-07-28T13:18:10;1.70;;;1.60;;
17959;SDS011;9105;53.552;9.980;2023-07-28T13:20:36;1.50;;;1.40;;
17959;SDS011;9105;53.552;9.980;2023-07-28T13:23:01;2.53;;;1.50;;
17959;SDS011;9105;53.552;9.980;2023-07-28T13:25:27;1.70;;;1.60;;
17959;SDS011;9105;53.552;9.980;2023-07-28T13:27:52;1.63;;;1.52;;
17959;SDS011;9105;53.552;9.980;2023-07-28T13:30:18;1.55;;;1.45;;
17959;SDS011;9105;53.552;9.980;2023-07-28T13:32:43;1.30;;;1.20;;
17959;SDS011;9105;53.552;9.980;2023-07-28T13:35:09;1.35;;;1.25;;
17959;SDS011;9105;53.552;9.980;2023-07-28T13:37:34;4.50;;;1.40;;
17959;SDS011;9105;53.552;9.980;2023-07-28T13:40:00;1.50;;;1.40;;
17959;SDS011;9105;53.552;9.980;2023-07-28T13:42:25;3.30;;;1.70;;
17959;SDS011;9105;53.552;9.980;2023-07-28T13:44:50;1.60;;;1.50;;
17959;SDS011;9105;53.552;9.980;2023-07-28T13:47:16;1.50;;;1.40;;
17959;SDS011;9105;53.552;9.980;2023-07-28T13:49:41;1.55;;;1.27;;
17959;SDS011;9105;53.552;9.980;2023-07-28T13:52:07;1.40;;;1.30;;
17959;SDS011;9105;53.552;9.980;2023-07-28T13:54:32;2.55;;;1.40;;
17959;SDS011;9105;53.552;9.980;2023-07-28T13:56:58;1.50;;;1.40;;
17959;SDS011;9105;53.552;9.980;2023-07-28T13:59:23;1.30;;;1.20;;
17959;SDS011;9105;53.552;9.980;2023-07-28T14:01:49;1.40;;;1.25;;
17959;SDS011;9105;53.552;9.980;2023-07-28T14:04:15;1.42;;;1.33;;
17959;SDS011;9105;53.552;9.980;2023-07-28T14:06:40;1.52;;;1.33;;
17959;SDS011;9105;53.552;9.980;2023-07-28T14:09:05;1.65;;;1.33;;
17959;SDS011;9105;53.552;9.980;2023-07-28T14:11:31;1.35;;;1.20;;
17959;SDS011;9105;53.552;9.980;2023-07-28T14:13:57;1.30;;;1.20;;
17959;SDS011;9105;53.552;9.980;2023-07-28T14:16:26;1.33;;;1.23;;
17959;SDS011;9105;53.552;9.980;2023-07-28T14:18:51;1.23;;;1.13;;
17959;SDS011;9105;53.552;9.980;2023-07-28T14:21:16;1.50;;;1.27;;
17959;SDS011;9105;53.552;9.980;2023-07-28T14:23:42;3.08;;;1.35;;
17959;SDS011;9105;53.552;9.980;2023-07-28T14:26:07;1.35;;;1.25;;
17959;SDS011;9105;53.552;9.980;2023-07-28T14:28:33;1.35;;;1.20;;
17959;SDS011;9105;53.552;9.980;2023-07-28T14:30:58;1.20;;;1.10;;
17959;SDS011;9105;53.552;9.980;2023-07-28T14:33:23;1.35;;;1.25;;
17959;SDS011;9105;53.552;9.980;2023-07-28T14:35:49;2.08;;;1.30;;
17959;SDS011;9105;53.552;9.980;2023-07-28T14:38:14;1.20;;;1.10;;
17959;SDS011;9105;53.552;9.980;2023-07-28T14:40:41;1.40;;;1.20;;
17959;SDS011;9105;53.552;9.980;2023-07-28T14:43:06;1.38;;;1.20;;
17959;SDS011;9105;53.552;9.980;2023-07-28T14:45:32;1.58;;;1.30;;
17959;SDS011;9105;53.552;9.980;2023-07-28T14:47:57;1.40;;;1.20;;
17959;SDS011;9105;53.552;9.980;2023-07-28T14:50:23;1.50;;;1.33;;
17959;SDS011;9105;53.552;9.980;2023-07-28T14:52:48;1.23;;;1.10;;
17959;SDS011;9105;53.552;9.980;2023-07-28T14:55:14;1.08;;;1.08;;
17959;SDS011;9105;53.552;9.980;2023-07-28T14:57:39;1.35;;;1.25;;
17959;SDS011;9105;53.552;9.980;2023-07-28T15:00:05;2.45;;;1.23;;
17959;SDS011;9105;53.552;9.980;2023-07-28T15:02:34;1.65;;;1.30;;
17959;SDS011;9105;53.552;9.980;2023-07-28T15:05:01;1.30;;;1.20;;
17959;SDS011;9105;53.552;9.980;2023-07-28T15:07:27;2.40;;;1.30;;
17959;SDS011;9105;53.552;9.980;2023-07-28T15:09:52;1.55;;;1.20;;
17959;SDS011;9105;53.552;9.980;2023-07-28T15:12:17;1.40;;;1.30;;
17959;SDS011;9105;53.552;9.980;2023-07-28T15:14:43;1.30;;;1.20;;
17959;SDS011;9105;53.552;9.980;2023-07-28T15:17:08;3.30;;;1.23;;
17959;SDS011;9105;53.552;9.980;2023-07-28T15:19:33;1.40;;;1.30;;
17959;SDS011;9105;53.552;9.980;2023-07-28T15:21:59;1.48;;;1.35;;
17959;SDS011;9105;53.552;9.980;2023-07-28T15:24:24;1.40;;;1.30;;